sensor_id;sensor_type;location;lat;lon;timestamp;temperature;humidity
14577;DHT22;7375;46.072;14.470;2023-03-16T00:00:01;27.40;40.20
14577;DHT22;7375;46.072;14.470;2023-03-16T00:02:28;27.40;40.00
14577;DHT22;7375;46.072;14.470;2023-03-16T00:04:55;27.50;40.00
14577;DHT22;7375;46.072;14.470;2023-03-16T00:07:22;27.40;40.00
14577;DHT22;7375;46.072;14.470;2023-03-16T00:09:49;27.60;39.80
14577;DHT22;7375;46.072;14.470;2023-03-16T00:12:16;27.60;39.90
14577;DHT22;7375;46.072;14.470;2023-03-16T00:14:43;27.60;39.80
14577;DHT22;7375;46.072;14.470;2023-03-16T00:17:13;27.60;39.90
14577;DHT22;7375;46.072;14.470;2023-03-16T00:19:43;27.50;39.90
14577;DHT22;7375;46.072;14.470;2023-03-16T00:22:11;27.50;40.00
14577;DHT22;7375;46.072;14.470;2023-03-16T00:24:39;27.50;39.90
14577;DHT22;7375;46.072;14.470;2023-03-16T00:27:07;27.50;40.00
14577;DHT22;7375;46.072;14.470;2023-03-16T00:29:34;27.50;40.00
14577;DHT22;7375;46.072;14.470;2023-03-16T00:32:01;27.60;39.90
14577;DHT22;7375;46.072;14.470;2023-03-16T00:34:29;27.60;39.90
14577;DHT22;7375;46.072;14.470;2023-03-16T00:36:58;27.50;40.00
14577;DHT22;7375;46.072;14.470;2023-03-16T00:39:26;27.50;40.00
14577;DHT22;7375;46.072;14.470;2023-03-16T00:41:53;27.40;40.20
14577;DHT22;7375;46.072;14.470;2023-03-16T00:44:22;27.40;40.00
14577;DHT22;7375;46.072;14.470;2023-03-16T00:46:49;27.50;40.10
14577;DHT22;7375;46.072;14.470;2023-03-16T00:49:16;27.50;40.10
14577;DHT22;7375;46.072;14.470;2023-03-16T00:51:45;27.40;40.20
14577;DHT22;7375;46.072;14.470;2023-03-16T00:54:12;27.40;40.30
14577;DHT22;7375;46.072;14.470;2023-03-16T00:56:38;27.20;40.40
14577;DHT22;7375;46.072;14.470;2023-03-16T00:59:07;27.30;40.40
14577;DHT22;7375;46.072;14.470;2023-03-16T01:01:34;27.30;40.60
14577;DHT22;7375;46.072;14.470;2023-03-16T01:04:01;27.30;40.60
14577;DHT22;7375;46.072;14.470;2023-03-16T01:06:27;27.30;40.40
14577;DHT22;7375;46.072;14.470;2023-03-16T01:08:56;27.30;40.40
14577;DHT22;7375;46.072;14.470;2023-03-16T01:11:22;27.30;40.40
14577;DHT22;7375;46.072;14.470;2023-03-16T01:13:49;27.30;40.50
14577;DHT22;7375;46.072;14.470;2023-03-16T01:16:18;27.20;40.50
14577;DHT22;7375;46.072;14.470;2023-03-16T01:18:47;27.30;40.50
14577;DHT22;7375;46.072;14.470;2023-03-16T01:21:14;27.30;40.50
14577;DHT22;7375;46.072;14.470;2023-03-16T01:23:41;27.40;40.30
14577;DHT22;7375;46.072;14.470;2023-03-16T01:26:10;27.30;40.40
14577;DHT22;7375;46.072;14.470;2023-03-16T01:28:36;27.40;40.40
14577;DHT22;7375;46.072;14.470;2023-03-16T01:31:04;27.40;40.40
14577;DHT22;7375;46.072;14.470;2023-03-16T01:33:31;27.40;40.60
14577;DHT22;7375;46.072;14.470;2023-03-16T01:35:59;27.30;40.60
14577;DHT22;7375;46.072;14.470;2023-03-16T01:38:26;27.30;40.50
14577;DHT22;7375;46.072;14.470;2023-03-16T01:40:53;27.30;40.40
14577;DHT22;7375;46.072;14.470;2023-03-16T01:43:22;27.30;40.50
14577;DHT22;7375;46.072;14.470;2023-03-16T01:48:58;27.50;40.30
14577;DHT22;7375;46.072;14.470;2023-03-16T01:51:28;27.50;40.30
14577;DHT22;7375;46.072;14.470;2023-03-16T01:53:57;27.40;40.40
14577;DHT22;7375;46.072;14.470;2023-03-16T01:56:25;27.40;40.90
14577;DHT22;7375;46.072;14.470;2023-03-16T01:58:54;27.40;40.40
14577;DHT22;7375;46.072;14.470;2023-03-16T02:01:23;27.50;40.20
14577;DHT22;7375;46.072;14.470;2023-03-16T02:03:50;27.30;40.60
14577;DHT22;7375;46.072;14.470;2023-03-16T02:06:19;27.30;40.60
14577;DHT22;7375;46.072;14.470;2023-03-16T02:08:47;27.20;40.60
14577;DHT22;7375;46.072;14.470;2023-03-16T02:11:15;27.20;40.60
14577;DHT22;7375;46.072;14.470;2023-03-16T02:13:43;27.30;40.30
14577;DHT22;7375;46.072;14.470;2023-03-16T02:16:12;27.40;40.40
14577;DHT22;7375;46.072;14.470;2023-03-16T02:18:43;27.30;40.40
14577;DHT22;7375;46.072;14.470;2023-03-16T02:21:11;27.30;40.40
14577;DHT22;7375;46.072;14.470;2023-03-16T02:23:40;27.40;40.30
14577;DHT22;7375;46.072;14.470;2023-03-16T02:26:09;27.40;40.30
14577;DHT22;7375;46.072;14.470;2023-03-16T02:28:37;27.40;40.30
14577;DHT22;7375;46.072;14.470;2023-03-16T02:31:10;27.40;40.30
14577;DHT22;7375;46.072;14.470;2023-03-16T02:33:37;27.40;40.30
14577;DHT22;7375;46.072;14.470;2023-03-16T02:36:05;27.40;40.20
14577;DHT22;7375;46.072;14.470;2023-03-16T02:38:32;27.30;40.30
14577;DHT22;7375;46.072;14.470;2023-03-16T02:41:00;27.40;40.20
14577;DHT22;7375;46.072;14.470;2023-03-16T02:43:29;27.40;40.20
14577;DHT22;7375;46.072;14.470;2023-03-16T02:45:59;27.50;40.20
14577;DHT22;7375;46.072;14.470;2023-03-16T02:48:29;27.50;40.10
14577;DHT22;7375;46.072;14.470;2023-03-16T02:50:58;27.40;40.20
14577;DHT22;7375;46.072;14.470;2023-03-16T02:53:25;27.40;40.10
14577;DHT22;7375;46.072;14.470;2023-03-16T02:55:52;27.50;40.40
14577;DHT22;7375;46.072;14.470;2023-03-16T02:58:18;27.40;40.20
14577;DHT22;7375;46.072;14.470;2023-03-16T03:00:45;27.40;40.20
14577;DHT22;7375;46.072;14.470;2023-03-16T03:03:12;27.50;40.10
14577;DHT22;7375;46.072;14.470;2023-03-16T03:05:40;27.50;40.10
14577;DHT22;7375;46.072;14.470;2023-03-16T03:08:07;27.40;40.20
14577;DHT22;7375;46.072;14.470;2023-03-16T03:10:34;27.50;40.10
14577;DHT22;7375;46.072;14.470;2023-03-16T03:13:01;27.40;40.40
14577;DHT22;7375;46.072;14.470;2023-03-16T03:15:28;27.40;40.30
14577;DHT22;7375;46.072;14.470;2023-03-16T03:17:54;27.50;40.20
14577;DHT22;7375;46.072;14.470;2023-03-16T03:20:21;27.50;40.20
14577;DHT22;7375;46.072;14.470;2023-03-16T03:22:49;27.60;40.10
14577;DHT22;7375;46.072;14.470;2023-03-16T03:25:17;27.60;40.00
14577;DHT22;7375;46.072;14.470;2023-03-16T03:27:45;27.50;40.00
14577;DHT22;7375;46.072;14.470;2023-03-16T03:30:13;27.50;40.00
14577;DHT22;7375;46.072;14.470;2023-03-16T03:32:41;27.60;40.10
14577;DHT22;7375;46.072;14.470;2023-03-16T03:35:08;27.60;39.90
14577;DHT22;7375;46.072;14.470;2023-03-16T03:37:36;27.50;40.00
14577;DHT22;7375;46.072;14.470;2023-03-16T03:40:05;27.40;40.20
14577;DHT22;7375;46.072;14.470;2023-03-16T03:42:32;27.60;39.90
14577;DHT22;7375;46.072;14.470;2023-03-16T03:44:59;27.70;39.80
14577;DHT22;7375;46.072;14.470;2023-03-16T03:47:26;27.60;40.00
14577;DHT22;7375;46.072;14.470;2023-03-16T03:49:53;27.70;39.70
14577;DHT22;7375;46.072;14.470;2023-03-16T03:52:19;27.70;39.60
14577;DHT22;7375;46.072;14.470;2023-03-16T03:54:46;27.70;39.70
14577;DHT22;7375;46.072;14.470;2023-03-16T03:57:14;27.70;39.70
14577;DHT22;7375;46.072;14.470;2023-03-16T03:59:41;27.70;39.60
14577;DHT22;7375;46.072;14.470;2023-03-16T04:02:08;27.70;39.60
14577;DHT22;7375;46.072;14.470;2023-03-16T04:04:35;27.80;39.30
14577;DHT22;7375;46.072;14.470;2023-03-16T04:07:02;27.80;39.40
14577;DHT22;7375;46.072;14.470;2023-03-16T04:09:29;27.70;39.70
14577;DHT22;7375;46.072;14.470;2023-03-16T04:11:58;27.80;39.60
14577;DHT22;7375;46.072;14.470;2023-03-16T04:14:26;27.80;39.60
14577;DHT22;7375;46.072;14.470;2023-03-16T04:16:53;27.80;39.60
14577;DHT22;7375;46.072;14.470;2023-03-16T04:19:20;27.80;39.50
14577;DHT22;7375;46.072;14.470;2023-03-16T04:21:47;27.70;40.10
14577;DHT22;7375;46.072;14.470;2023-03-16T04:24:13;27.70;39.60
14577;DHT22;7375;46.072;14.470;2023-03-16T04:26:40;27.80;39.40
14577;DHT22;7375;46.072;14.470;2023-03-16T04:29:09;27.80;39.40
14577;DHT22;7375;46.072;14.470;2023-03-16T04:31:37;27.60;39.60
14577;DHT22;7375;46.072;14.470;2023-03-16T04:34:04;27.70;39.50
14577;DHT22;7375;46.072;14.470;2023-03-16T04:36:31;27.80;39.40
14577;DHT22;7375;46.072;14.470;2023-03-16T04:38:58;28.00;39.30
14577;DHT22;7375;46.072;14.470;2023-03-16T04:41:25;28.20;39.00
14577;DHT22;7375;46.072;14.470;2023-03-16T04:43:52;28.60;38.40
14577;DHT22;7375;46.072;14.470;2023-03-16T04:46:18;28.60;38.20
14577;DHT22;7375;46.072;14.470;2023-03-16T04:48:46;28.70;38.10
14577;DHT22;7375;46.072;14.470;2023-03-16T04:51:13;28.90;37.90
14577;DHT22;7375;46.072;14.470;2023-03-16T04:53:40;29.00;37.90
14577;DHT22;7375;46.072;14.470;2023-03-16T04:56:07;29.30;37.30
14577;DHT22;7375;46.072;14.470;2023-03-16T04:58:34;29.50;37.00
14577;DHT22;7375;46.072;14.470;2023-03-16T05:01:00;29.40;37.10
14577;DHT22;7375;46.072;14.470;2023-03-16T05:03:27;29.60;37.80
14577;DHT22;7375;46.072;14.470;2023-03-16T05:05:56;29.60;37.00
14577;DHT22;7375;46.072;14.470;2023-03-16T05:08:22;29.50;36.80
14577;DHT22;7375;46.072;14.470;2023-03-16T05:10:49;29.60;36.70
14577;DHT22;7375;46.072;14.470;2023-03-16T05:13:16;29.60;36.90
14577;DHT22;7375;46.072;14.470;2023-03-16T05:15:43;29.60;36.80
14577;DHT22;7375;46.072;14.470;2023-03-16T05:18:10;29.70;36.70
14577;DHT22;7375;46.072;14.470;2023-03-16T05:20:37;29.70;36.70
14577;DHT22;7375;46.072;14.470;2023-03-16T05:23:05;29.70;36.50
14577;DHT22;7375;46.072;14.470;2023-03-16T05:25:32;29.80;36.60
14577;DHT22;7375;46.072;14.470;2023-03-16T05:27:59;29.70;36.70
14577;DHT22;7375;46.072;14.470;2023-03-16T05:30:26;29.60;36.60
14577;DHT22;7375;46.072;14.470;2023-03-16T05:32:53;29.60;36.80
14577;DHT22;7375;46.072;14.470;2023-03-16T05:35:22;29.70;36.70
14577;DHT22;7375;46.072;14.470;2023-03-16T05:37:48;29.70;36.70
14577;DHT22;7375;46.072;14.470;2023-03-16T05:40:17;29.80;36.50
14577;DHT22;7375;46.072;14.470;2023-03-16T05:42:48;29.90;36.50
14577;DHT22;7375;46.072;14.470;2023-03-16T05:45:15;29.90;36.50
14577;DHT22;7375;46.072;14.470;2023-03-16T05:47:42;29.80;36.90
14577;DHT22;7375;46.072;14.470;2023-03-16T05:50:10;29.90;36.30
14577;DHT22;7375;46.072;14.470;2023-03-16T05:52:38;29.70;36.40
14577;DHT22;7375;46.072;14.470;2023-03-16T05:55:05;29.90;36.20
14577;DHT22;7375;46.072;14.470;2023-03-16T05:57:33;29.80;36.20
14577;DHT22;7375;46.072;14.470;2023-03-16T06:00:00;29.90;36.20
14577;DHT22;7375;46.072;14.470;2023-03-16T06:02:36;29.90;36.00
14577;DHT22;7375;46.072;14.470;2023-03-16T06:05:02;29.80;36.50
14577;DHT22;7375;46.072;14.470;2023-03-16T06:07:29;29.80;36.50
14577;DHT22;7375;46.072;14.470;2023-03-16T06:09:56;29.90;36.10
14577;DHT22;7375;46.072;14.470;2023-03-16T06:12:23;29.90;36.10
14577;DHT22;7375;46.072;14.470;2023-03-16T06:14:51;29.90;36.00
14577;DHT22;7375;46.072;14.470;2023-03-16T06:17:18;29.90;36.00
14577;DHT22;7375;46.072;14.470;2023-03-16T06:19:45;30.10;36.00
14577;DHT22;7375;46.072;14.470;2023-03-16T06:22:12;30.10;35.90
14577;DHT22;7375;46.072;14.470;2023-03-16T06:24:39;30.00;36.30
14577;DHT22;7375;46.072;14.470;2023-03-16T06:27:06;29.60;36.30
14577;DHT22;7375;46.072;14.470;2023-03-16T06:29:33;29.10;37.00
14577;DHT22;7375;46.072;14.470;2023-03-16T06:32:01;28.80;37.50
14577;DHT22;7375;46.072;14.470;2023-03-16T06:34:28;28.50;37.80
14577;DHT22;7375;46.072;14.470;2023-03-16T06:36:56;28.30;38.10
14577;DHT22;7375;46.072;14.470;2023-03-16T06:39:23;28.10;38.50
14577;DHT22;7375;46.072;14.470;2023-03-16T06:41:49;27.90;38.80
14577;DHT22;7375;46.072;14.470;2023-03-16T06:44:16;27.50;39.40
14577;DHT22;7375;46.072;14.470;2023-03-16T06:46:43;27.20;39.80
14577;DHT22;7375;46.072;14.470;2023-03-16T06:49:11;27.10;40.20
14577;DHT22;7375;46.072;14.470;2023-03-16T06:51:38;26.90;40.90
14577;DHT22;7375;46.072;14.470;2023-03-16T06:54:04;26.70;41.30
14577;DHT22;7375;46.072;14.470;2023-03-16T06:56:31;26.50;41.50
14577;DHT22;7375;46.072;14.470;2023-03-16T06:58:58;26.40;41.80
14577;DHT22;7375;46.072;14.470;2023-03-16T07:01:25;26.20;42.20
14577;DHT22;7375;46.072;14.470;2023-03-16T07:03:52;26.10;42.40
14577;DHT22;7375;46.072;14.470;2023-03-16T07:06:20;26.10;42.60
14577;DHT22;7375;46.072;14.470;2023-03-16T07:08:47;26.10;42.70
14577;DHT22;7375;46.072;14.470;2023-03-16T07:11:14;26.00;43.00
14577;DHT22;7375;46.072;14.470;2023-03-16T07:13:41;25.80;43.40
14577;DHT22;7375;46.072;14.470;2023-03-16T07:16:10;25.70;43.40
14577;DHT22;7375;46.072;14.470;2023-03-16T07:18:37;25.70;43.70
14577;DHT22;7375;46.072;14.470;2023-03-16T07:21:04;25.70;43.30
14577;DHT22;7375;46.072;14.470;2023-03-16T07:23:32;25.60;43.70
14577;DHT22;7375;46.072;14.470;2023-03-16T07:25:59;25.60;43.90
14577;DHT22;7375;46.072;14.470;2023-03-16T07:28:26;25.60;44.10
14577;DHT22;7375;46.072;14.470;2023-03-16T07:30:54;25.60;43.90
14577;DHT22;7375;46.072;14.470;2023-03-16T07:33:20;25.70;44.00
14577;DHT22;7375;46.072;14.470;2023-03-16T07:35:47;25.70;44.00
14577;DHT22;7375;46.072;14.470;2023-03-16T07:38:14;25.70;44.00
14577;DHT22;7375;46.072;14.470;2023-03-16T07:40:42;25.70;43.90
14577;DHT22;7375;46.072;14.470;2023-03-16T07:43:09;25.70;44.00
14577;DHT22;7375;46.072;14.470;2023-03-16T07:45:36;25.60;44.00
14577;DHT22;7375;46.072;14.470;2023-03-16T07:48:03;25.60;44.00
14577;DHT22;7375;46.072;14.470;2023-03-16T07:50:30;25.60;44.20
14577;DHT22;7375;46.072;14.470;2023-03-16T07:52:57;25.50;44.40
14577;DHT22;7375;46.072;14.470;2023-03-16T07:55:24;25.50;44.40
14577;DHT22;7375;46.072;14.470;2023-03-16T07:57:52;25.50;44.50
14577;DHT22;7375;46.072;14.470;2023-03-16T08:00:19;25.50;44.50
14577;DHT22;7375;46.072;14.470;2023-03-16T08:02:48;25.50;44.60
14577;DHT22;7375;46.072;14.470;2023-03-16T08:05:15;25.50;44.80
14577;DHT22;7375;46.072;14.470;2023-03-16T08:07:42;25.40;44.80
14577;DHT22;7375;46.072;14.470;2023-03-16T08:10:10;25.40;44.90
14577;DHT22;7375;46.072;14.470;2023-03-16T08:12:37;25.40;44.90
14577;DHT22;7375;46.072;14.470;2023-03-16T08:15:06;25.50;45.00
14577;DHT22;7375;46.072;14.470;2023-03-16T08:17:34;25.50;44.80
14577;DHT22;7375;46.072;14.470;2023-03-16T08:20:01;25.40;45.00
14577;DHT22;7375;46.072;14.470;2023-03-16T08:22:31;25.40;44.90
14577;DHT22;7375;46.072;14.470;2023-03-16T08:24:57;25.40;45.10
14577;DHT22;7375;46.072;14.470;2023-03-16T08:27:25;25.40;45.20
14577;DHT22;7375;46.072;14.470;2023-03-16T08:29:53;25.40;45.40
14577;DHT22;7375;46.072;14.470;2023-03-16T08:32:22;25.30;45.40
14577;DHT22;7375;46.072;14.470;2023-03-16T08:34:49;25.30;45.70
14577;DHT22;7375;46.072;14.470;2023-03-16T08:37:17;25.20;45.80
14577;DHT22;7375;46.072;14.470;2023-03-16T08:39:43;25.20;45.70
14577;DHT22;7375;46.072;14.470;2023-03-16T08:42:10;25.00;46.00
14577;DHT22;7375;46.072;14.470;2023-03-16T08:44:39;25.10;45.90
14577;DHT22;7375;46.072;14.470;2023-03-16T08:47:07;25.20;46.10
14577;DHT22;7375;46.072;14.470;2023-03-16T08:49:36;25.20;46.10
14577;DHT22;7375;46.072;14.470;2023-03-16T08:52:04;25.20;46.80
14577;DHT22;7375;46.072;14.470;2023-03-16T08:54:31;25.10;46.40
14577;DHT22;7375;46.072;14.470;2023-03-16T08:56:58;25.10;46.30
14577;DHT22;7375;46.072;14.470;2023-03-16T08:59:25;25.10;46.30
14577;DHT22;7375;46.072;14.470;2023-03-16T09:01:52;25.10;46.30
14577;DHT22;7375;46.072;14.470;2023-03-16T09:04:18;25.10;46.40
14577;DHT22;7375;46.072;14.470;2023-03-16T09:06:47;25.00;46.40
14577;DHT22;7375;46.072;14.470;2023-03-16T09:09:15;25.00;46.20
14577;DHT22;7375;46.072;14.470;2023-03-16T09:11:42;25.00;46.20
14577;DHT22;7375;46.072;14.470;2023-03-16T09:14:10;24.90;45.60
14577;DHT22;7375;46.072;14.470;2023-03-16T09:16:38;24.90;46.20
14577;DHT22;7375;46.072;14.470;2023-03-16T09:19:05;24.80;45.80
14577;DHT22;7375;46.072;14.470;2023-03-16T09:21:32;24.80;46.10
14577;DHT22;7375;46.072;14.470;2023-03-16T09:24:02;24.80;46.00
14577;DHT22;7375;46.072;14.470;2023-03-16T09:26:28;24.80;46.10
14577;DHT22;7375;46.072;14.470;2023-03-16T09:28:55;24.80;45.70
14577;DHT22;7375;46.072;14.470;2023-03-16T09:31:22;24.80;46.00
14577;DHT22;7375;46.072;14.470;2023-03-16T09:33:49;24.70;45.60
14577;DHT22;7375;46.072;14.470;2023-03-16T09:36:15;24.70;46.00
14577;DHT22;7375;46.072;14.470;2023-03-16T09:38:43;24.70;46.20
14577;DHT22;7375;46.072;14.470;2023-03-16T09:41:14;24.70;45.90
14577;DHT22;7375;46.072;14.470;2023-03-16T09:43:50;24.70;46.20
14577;DHT22;7375;46.072;14.470;2023-03-16T09:46:22;24.70;46.10
14577;DHT22;7375;46.072;14.470;2023-03-16T09:48:50;24.70;46.20
14577;DHT22;7375;46.072;14.470;2023-03-16T09:51:17;24.60;46.20
14577;DHT22;7375;46.072;14.470;2023-03-16T09:53:45;24.60;46.20
14577;DHT22;7375;46.072;14.470;2023-03-16T09:56:15;24.60;46.20
14577;DHT22;7375;46.072;14.470;2023-03-16T09:58:43;24.60;46.20
14577;DHT22;7375;46.072;14.470;2023-03-16T10:01:12;24.60;46.40
14577;DHT22;7375;46.072;14.470;2023-03-16T10:03:48;24.60;46.50
14577;DHT22;7375;46.072;14.470;2023-03-16T10:06:21;24.50;46.30
14577;DHT22;7375;46.072;14.470;2023-03-16T10:08:50;24.50;46.40
14577;DHT22;7375;46.072;14.470;2023-03-16T10:11:24;24.40;46.40
14577;DHT22;7375;46.072;14.470;2023-03-16T10:13:54;24.40;46.40
14577;DHT22;7375;46.072;14.470;2023-03-16T10:16:23;24.40;46.60
14577;DHT22;7375;46.072;14.470;2023-03-16T10:18:52;24.30;46.60
14577;DHT22;7375;46.072;14.470;2023-03-16T10:21:22;24.30;46.60
14577;DHT22;7375;46.072;14.470;2023-03-16T10:23:49;24.30;46.70
14577;DHT22;7375;46.072;14.470;2023-03-16T10:26:20;24.30;46.60
14577;DHT22;7375;46.072;14.470;2023-03-16T10:28:49;24.30;46.70
14577;DHT22;7375;46.072;14.470;2023-03-16T10:31:18;24.20;46.70
14577;DHT22;7375;46.072;14.470;2023-03-16T10:33:45;24.20;46.80
14577;DHT22;7375;46.072;14.470;2023-03-16T10:36:16;24.20;46.80
14577;DHT22;7375;46.072;14.470;2023-03-16T10:38:45;24.10;46.90
14577;DHT22;7375;46.072;14.470;2023-03-16T10:41:20;24.00;46.90
14577;DHT22;7375;46.072;14.470;2023-03-16T10:43:50;24.00;46.80
14577;DHT22;7375;46.072;14.470;2023-03-16T10:46:17;24.00;47.00
14577;DHT22;7375;46.072;14.470;2023-03-16T10:48:50;23.90;47.00
14577;DHT22;7375;46.072;14.470;2023-03-16T10:51:17;23.90;47.10
14577;DHT22;7375;46.072;14.470;2023-03-16T10:53:45;23.90;47.20
14577;DHT22;7375;46.072;14.470;2023-03-16T10:56:17;23.80;47.20
14577;DHT22;7375;46.072;14.470;2023-03-16T10:58:44;23.80;47.20
14577;DHT22;7375;46.072;14.470;2023-03-16T11:01:14;23.70;47.20
14577;DHT22;7375;46.072;14.470;2023-03-16T11:03:46;23.70;47.40
14577;DHT22;7375;46.072;14.470;2023-03-16T11:06:16;23.70;47.40
14577;DHT22;7375;46.072;14.470;2023-03-16T11:08:44;23.60;47.30
14577;DHT22;7375;46.072;14.470;2023-03-16T11:11:13;23.60;47.50
14577;DHT22;7375;46.072;14.470;2023-03-16T11:13:42;23.60;47.60
14577;DHT22;7375;46.072;14.470;2023-03-16T11:16:16;23.50;47.60
14577;DHT22;7375;46.072;14.470;2023-03-16T11:18:47;23.50;47.70
14577;DHT22;7375;46.072;14.470;2023-03-16T11:21:17;23.50;47.70
14577;DHT22;7375;46.072;14.470;2023-03-16T11:23:46;23.50;47.80
14577;DHT22;7375;46.072;14.470;2023-03-16T11:26:15;23.40;47.80
14577;DHT22;7375;46.072;14.470;2023-03-16T11:28:46;23.40;48.00
14577;DHT22;7375;46.072;14.470;2023-03-16T11:31:19;23.40;48.20
14577;DHT22;7375;46.072;14.470;2023-03-16T11:33:48;23.30;48.20
14577;DHT22;7375;46.072;14.470;2023-03-16T11:36:25;23.30;48.20
14577;DHT22;7375;46.072;14.470;2023-03-16T11:38:58;23.30;48.60
14577;DHT22;7375;46.072;14.470;2023-03-16T11:41:27;23.10;48.50
14577;DHT22;7375;46.072;14.470;2023-03-16T11:44:01;23.10;48.70
14577;DHT22;7375;46.072;14.470;2023-03-16T11:46:32;23.10;48.40
14577;DHT22;7375;46.072;14.470;2023-03-16T11:49:13;23.10;48.70
14577;DHT22;7375;46.072;14.470;2023-03-16T11:51:46;23.00;48.70
14577;DHT22;7375;46.072;14.470;2023-03-16T11:54:23;23.00;48.70
14577;DHT22;7375;46.072;14.470;2023-03-16T11:56:55;22.90;48.20
14577;DHT22;7375;46.072;14.470;2023-03-16T11:59:32;22.90;48.30
14577;DHT22;7375;46.072;14.470;2023-03-16T12:02:06;22.90;49.00
14577;DHT22;7375;46.072;14.470;2023-03-16T12:04:50;22.80;48.90
14577;DHT22;7375;46.072;14.470;2023-03-16T12:07:24;22.80;49.10
14577;DHT22;7375;46.072;14.470;2023-03-16T12:10:02;22.80;49.30
14577;DHT22;7375;46.072;14.470;2023-03-16T12:12:36;22.70;49.30
14577;DHT22;7375;46.072;14.470;2023-03-16T12:15:09;22.70;49.40
14577;DHT22;7375;46.072;14.470;2023-03-16T12:17:42;22.60;49.70
14577;DHT22;7375;46.072;14.470;2023-03-16T12:20:12;22.60;49.90
14577;DHT22;7375;46.072;14.470;2023-03-16T12:22:42;22.60;49.50
14577;DHT22;7375;46.072;14.470;2023-03-16T12:25:12;22.60;50.10
14577;DHT22;7375;46.072;14.470;2023-03-16T12:27:40;22.50;50.30
14577;DHT22;7375;46.072;14.470;2023-03-16T12:32:42;22.40;50.30
14577;DHT22;7375;46.072;14.470;2023-03-16T12:38:13;22.30;50.50
14577;DHT22;7375;46.072;14.470;2023-03-16T12:40:42;22.30;50.70
14577;DHT22;7375;46.072;14.470;2023-03-16T12:43:16;22.30;50.70
14577;DHT22;7375;46.072;14.470;2023-03-16T12:45:47;22.30;50.90
14577;DHT22;7375;46.072;14.470;2023-03-16T12:48:20;22.20;50.80
14577;DHT22;7375;46.072;14.470;2023-03-16T12:50:51;22.20;50.90
14577;DHT22;7375;46.072;14.470;2023-03-16T12:53:26;22.20;51.10
14577;DHT22;7375;46.072;14.470;2023-03-16T12:55:53;22.20;51.10
14577;DHT22;7375;46.072;14.470;2023-03-16T12:58:21;22.20;51.20
14577;DHT22;7375;46.072;14.470;2023-03-16T13:00:53;22.20;51.30
14577;DHT22;7375;46.072;14.470;2023-03-16T13:03:23;22.10;51.30
14577;DHT22;7375;46.072;14.470;2023-03-16T13:05:52;22.10;51.30
14577;DHT22;7375;46.072;14.470;2023-03-16T13:08:20;22.10;51.40
14577;DHT22;7375;46.072;14.470;2023-03-16T13:11:00;22.00;51.30
14577;DHT22;7375;46.072;14.470;2023-03-16T13:13:27;22.00;51.40
14577;DHT22;7375;46.072;14.470;2023-03-16T13:16:01;22.00;51.50
14577;DHT22;7375;46.072;14.470;2023-03-16T13:18:35;21.90;51.50
14577;DHT22;7375;46.072;14.470;2023-03-16T13:21:12;22.00;51.60
14577;DHT22;7375;46.072;14.470;2023-03-16T13:23:51;21.90;51.50
14577;DHT22;7375;46.072;14.470;2023-03-16T13:26:21;21.90;51.60
14577;DHT22;7375;46.072;14.470;2023-03-16T13:28:49;21.90;51.70
14577;DHT22;7375;46.072;14.470;2023-03-16T13:31:20;21.90;51.70
14577;DHT22;7375;46.072;14.470;2023-03-16T13:33:49;21.90;51.80
14577;DHT22;7375;46.072;14.470;2023-03-16T13:36:18;21.80;51.80
14577;DHT22;7375;46.072;14.470;2023-03-16T13:38:54;21.80;51.80
14577;DHT22;7375;46.072;14.470;2023-03-16T13:41:21;21.80;51.90
14577;DHT22;7375;46.072;14.470;2023-03-16T13:43:49;21.80;51.90
14577;DHT22;7375;46.072;14.470;2023-03-16T13:46:16;21.70;52.00
14577;DHT22;7375;46.072;14.470;2023-03-16T13:48:43;21.70;51.90
14577;DHT22;7375;46.072;14.470;2023-03-16T13:51:15;21.70;52.00
14577;DHT22;7375;46.072;14.470;2023-03-16T13:53:42;21.70;51.90
14577;DHT22;7375;46.072;14.470;2023-03-16T13:56:12;21.70;51.90
14577;DHT22;7375;46.072;14.470;2023-03-16T13:58:39;21.70;52.00
14577;DHT22;7375;46.072;14.470;2023-03-16T14:01:10;21.70;52.00
14577;DHT22;7375;46.072;14.470;2023-03-16T14:03:38;21.60;52.00
14577;DHT22;7375;46.072;14.470;2023-03-16T14:06:15;21.60;52.10
14577;DHT22;7375;46.072;14.470;2023-03-16T14:08:45;21.60;52.10
14577;DHT22;7375;46.072;14.470;2023-03-16T14:11:14;21.60;52.20
14577;DHT22;7375;46.072;14.470;2023-03-16T14:13:41;21.60;52.10
14577;DHT22;7375;46.072;14.470;2023-03-16T14:16:10;21.60;52.10
14577;DHT22;7375;46.072;14.470;2023-03-16T14:18:39;21.60;52.20
14577;DHT22;7375;46.072;14.470;2023-03-16T14:21:07;21.60;52.20
14577;DHT22;7375;46.072;14.470;2023-03-16T14:23:35;21.50;52.10
14577;DHT22;7375;46.072;14.470;2023-03-16T14:26:04;21.50;52.10
14577;DHT22;7375;46.072;14.470;2023-03-16T14:28:32;21.50;52.10
14577;DHT22;7375;46.072;14.470;2023-03-16T14:31:09;21.50;52.10
14577;DHT22;7375;46.072;14.470;2023-03-16T14:33:37;21.50;52.00
14577;DHT22;7375;46.072;14.470;2023-03-16T14:36:08;21.50;52.10
14577;DHT22;7375;46.072;14.470;2023-03-16T14:38:36;21.50;52.10
14577;DHT22;7375;46.072;14.470;2023-03-16T14:41:16;21.50;52.10
14577;DHT22;7375;46.072;14.470;2023-03-16T14:43:45;21.50;52.30
14577;DHT22;7375;46.072;14.470;2023-03-16T14:46:13;21.50;52.20
14577;DHT22;7375;46.072;14.470;2023-03-16T14:48:40;21.50;52.20
14577;DHT22;7375;46.072;14.470;2023-03-16T14:51:08;21.50;52.20
14577;DHT22;7375;46.072;14.470;2023-03-16T14:53:37;21.50;52.20
14577;DHT22;7375;46.072;14.470;2023-03-16T14:56:09;21.50;52.20
14577;DHT22;7375;46.072;14.470;2023-03-16T14:58:37;21.40;52.20
14577;DHT22;7375;46.072;14.470;2023-03-16T15:01:04;21.40;52.10
14577;DHT22;7375;46.072;14.470;2023-03-16T15:03:32;21.40;52.20
14577;DHT22;7375;46.072;14.470;2023-03-16T15:06:01;21.40;52.20
14577;DHT22;7375;46.072;14.470;2023-03-16T15:08:29;21.40;52.20
14577;DHT22;7375;46.072;14.470;2023-03-16T15:10:57;21.40;52.20
14577;DHT22;7375;46.072;14.470;2023-03-16T15:13:26;21.40;52.20
14577;DHT22;7375;46.072;14.470;2023-03-16T15:16:17;21.40;52.20
14577;DHT22;7375;46.072;14.470;2023-03-16T15:18:44;21.40;52.20
14577;DHT22;7375;46.072;14.470;2023-03-16T15:21:13;21.40;52.20
14577;DHT22;7375;46.072;14.470;2023-03-16T15:23:40;21.30;52.10
14577;DHT22;7375;46.072;14.470;2023-03-16T15:26:07;21.40;52.20
14577;DHT22;7375;46.072;14.470;2023-03-16T15:28:36;21.30;52.20
14577;DHT22;7375;46.072;14.470;2023-03-16T15:31:03;21.30;52.20
14577;DHT22;7375;46.072;14.470;2023-03-16T15:33:30;21.30;52.20
14577;DHT22;7375;46.072;14.470;2023-03-16T15:35:58;21.30;52.10
14577;DHT22;7375;46.072;14.470;2023-03-16T15:38:27;21.30;52.20
14577;DHT22;7375;46.072;14.470;2023-03-16T15:40:54;21.30;52.20
14577;DHT22;7375;46.072;14.470;2023-03-16T15:43:21;21.30;52.10
14577;DHT22;7375;46.072;14.470;2023-03-16T15:45:50;21.30;52.20